Time;durP1;ratioP1;P1;durP2;ratioP2;P2;SDS_P1;SDS_P2;PMS_P1;PMS_P2;Temp;Humidity;BMP_temperature;BMP_pressure;BME280_temperature;BME280_humidity;BME280_pressure;Samples;Min_cycle;Max_cycle;Signal;HPM_P1;HPM_P2
2021/06/19 00:01:22;;;;;;;13.98;7.55;;;;;;;22.08;77.63;100228.25;20586993;28;20521;-71
2021/06/19 00:11:24;;;;;;;17.95;7.78;;;;;;;21.48;79.86;100226.81;20586620;28;20055;-72
2021/06/19 00:21:26;;;;;;;18.70;8.90;;;;;;;21.58;79.85;100237.72;20585232;28;20050;-72
2021/06/19 00:31:28;;;;;;;14.85;9.02;;;;;;;21.53;78.92;100237.19;20576416;28;20528;-71
2021/06/19 00:41:31;;;;;;;14.07;9.80;;;;;;;21.40;80.06;100244.22;20505436;29;20414;-72
2021/06/19 00:51:33;;;;;;;22.25;10.77;;;;;;;21.46;79.77;100265.13;20502315;29;20207;-72
2021/06/19 01:01:35;;;;;;;17.55;10.75;;;;;;;21.47;80.37;100273.06;20503576;28;20055;-72
2021/06/19 01:11:39;;;;;;;17.65;10.70;;;;;;;21.52;80.09;100280.75;20503364;28;20051;-72
2021/06/19 01:21:41;;;;;;;20.33;11.20;;;;;;;21.42;80.73;100277.81;20485492;29;20102;-72
2021/06/19 01:31:43;;;;;;;18.33;11.18;;;;;;;21.44;80.63;100272.38;20501458;28;20059;-72
2021/06/19 01:41:45;;;;;;;21.20;11.80;;;;;;;21.32;80.48;100268.69;20501485;29;20051;-72
2021/06/19 01:51:46;;;;;;;19.52;11.63;;;;;;;21.29;80.72;100255.53;20500399;28;20410;-72
2021/06/19 02:01:48;;;;;;;19.38;12.27;;;;;;;20.87;83.12;100251.03;20499222;28;20062;-72
2021/06/19 02:11:50;;;;;;;18.67;12.13;;;;;;;20.74;82.86;100230.50;20499351;29;20047;-73
2021/06/19 02:21:52;;;;;;;18.98;11.68;;;;;;;20.97;81.48;100221.09;20498207;28;20069;-71
2021/06/19 02:31:54;;;;;;;13.77;10.68;;;;;;;21.01;79.83;100230.59;20497916;28;20058;-71
2021/06/19 02:41:56;;;;;;;15.60;10.25;;;;;;;21.13;79.68;100234.34;20498073;29;20488;-72
2021/06/19 02:51:57;;;;;;;14.57;10.32;;;;;;;21.09;79.76;100235.47;20497568;29;20051;-72
2021/06/19 03:01:59;;;;;;;19.35;11.60;;;;;;;20.96;80.33;100243.34;20497242;28;20055;-72
2021/06/19 03:12:01;;;;;;;17.20;11.27;;;;;;;20.78;80.24;100249.78;20495221;29;20126;-71
2021/06/19 03:22:03;;;;;;;19.25;10.95;;;;;;;20.70;80.58;100263.56;20495439;29;20104;-72
2021/06/19 03:32:06;;;;;;;14.35;10.63;;;;;;;20.70;80.00;100276.88;20499324;28;20058;-72
2021/06/19 03:42:08;;;;;;;13.88;10.10;;;;;;;20.70;80.27;100297.31;20508099;29;20051;-72
2021/06/19 03:52:10;;;;;;;13.90;10.32;;;;;;;20.77;80.26;100311.09;20508538;29;20106;-71
2021/06/19 04:02:11;;;;;;;14.40;10.73;;;;;;;20.83;80.13;100340.00;20510083;28;20047;-74
2021/06/19 04:12:16;;;;;;;15.65;10.95;;;;;;;21.06;79.97;100346.63;20507040;29;20047;-72
2021/06/19 04:22:19;;;;;;;15.15;11.25;;;;;;;21.20;78.99;100341.31;20506457;29;20469;-71
2021/06/19 04:32:21;;;;;;;17.27;11.38;;;;;;;21.71;77.01;100355.06;20505635;28;20098;-71
2021/06/19 04:42:25;;;;;;;15.20;10.55;;;;;;;23.25;71.42;100368.94;20505195;28;20047;-72
2021/06/19 04:52:31;;;;;;;19.05;11.13;;;;;;;23.76;69.51;100374.31;20504457;28;20055;-72
2021/06/19 05:02:32;;;;;;;12.43;10.10;;;;;;;23.37;71.24;100379.75;20503632;28;20058;-72
2021/06/19 05:12:36;;;;;;;16.70;11.23;;;;;;;23.11;73.71;100377.06;20506556;28;20637;-72
2021/06/19 05:22:38;;;;;;;13.87;10.80;;;;;;;23.11;74.05;100377.06;20573492;28;20051;-72
2021/06/19 05:32:40;;;;;;;19.23;11.38;;;;;;;23.19;73.95;100390.75;20580699;28;20054;-73
2021/06/19 05:42:42;;;;;;;15.48;11.55;;;;;;;23.39;73.09;100394.72;20580806;28;20551;-72
2021/06/19 05:52:44;;;;;;;16.45;10.85;;;;;;;23.55;71.59;100395.34;20579273;28;20102;-73
2021/06/19 06:02:49;;;;;;;18.20;10.10;;;;;;;23.54;70.27;100390.13;20579070;28;20394;-74
2021/06/19 06:12:50;;;;;;;13.27;8.25;;;;;;;23.89;69.57;100386.81;20580070;28;20059;-75
2021/06/19 06:22:52;;;;;;;10.68;7.70;;;;;;;24.06;67.47;100381.09;20577630;28;20093;-75
2021/06/19 06:32:54;;;;;;;13.18;7.50;;;;;;;24.46;67.05;100394.28;20576491;28;20382;-74
2021/06/19 06:42:56;;;;;;;12.07;7.15;;;;;;;24.58;64.56;100374.66;20576414;28;20055;-74
2021/06/19 06:52:59;;;;;;;11.05;7.43;;;;;;;24.81;63.99;100376.41;20575929;28;20051;-76
2021/06/19 07:03:01;;;;;;;11.13;6.38;;;;;;;25.02;61.61;100365.06;20551741;28;20047;-74
2021/06/19 07:13:03;;;;;;;7.40;4.68;;;;;;;25.23;57.38;100358.06;20473592;28;20123;-74
2021/06/19 07:23:05;;;;;;;9.07;6.05;;;;;;;25.51;59.12;100358.59;20461314;29;20417;-74
2021/06/19 07:33:06;;;;;;;8.77;4.78;;;;;;;25.66;57.06;100349.34;20510465;28;20560;-73
2021/06/19 07:43:08;;;;;;;8.57;5.45;;;;;;;25.80;58.45;100351.81;20457690;29;20047;-73
2021/06/19 07:53:11;;;;;;;10.70;5.47;;;;;;;26.12;56.28;100345.69;20429502;29;20055;-74
2021/06/19 08:03:13;;;;;;;13.02;6.30;;;;;;;25.96;57.33;100339.84;20429614;29;20060;-74
2021/06/19 08:13:14;;;;;;;11.30;4.60;;;;;;;26.22;54.12;100333.22;20449020;29;20058;-75
2021/06/19 08:23:16;;;;;;;8.95;4.38;;;;;;;26.06;52.66;100324.69;20507572;28;20051;-74
2021/06/19 08:33:18;;;;;;;9.75;4.45;;;;;;;26.28;51.96;100323.78;20508346;28;20047;-74
2021/06/19 08:43:20;;;;;;;7.07;4.00;;;;;;;26.88;50.82;100316.09;20508500;29;20074;-74
2021/06/19 08:53:22;;;;;;;10.70;4.50;;;;;;;27.01;49.73;100306.03;20505137;29;20106;-74
2021/06/19 09:03:44;;;;;;;8.40;3.55;;;;;;;27.55;50.27;100283.41;20505297;28;20118;-75
2021/06/19 09:13:57;;;;;;;7.53;3.92;;;;;;;27.93;47.70;100282.72;20478892;29;20047;-74
2021/06/19 09:23:59;;;;;;;9.35;3.72;;;;;;;27.91;47.95;100275.75;20423920;29;20400;-74
2021/06/19 09:34:18;;;;;;;7.82;3.70;;;;;;;28.22;47.59;100249.56;20421756;29;20043;-74
2021/06/19 09:44:37;;;;;;;6.30;3.67;;;;;;;28.28;45.43;100220.25;20422163;29;20511;-77
2021/06/19 09:54:40;;;;;;;7.85;4.28;;;;;;;28.43;46.79;100199.16;20423077;29;20051;-75
2021/06/19 10:04:49;;;;;;;8.02;3.95;;;;;;;28.42;47.11;100186.69;20421861;29;20491;-76
2021/06/19 10:15:07;;;;;;;10.40;5.40;;;;;;;28.94;47.55;100192.50;20454897;29;20126;-75
2021/06/19 10:25:11;;;;;;;16.55;6.60;;;;;;;29.26;46.48;100196.66;20500521;29;20079;-76
2021/06/19 10:35:16;;;;;;;11.55;6.07;;;;;;;29.18;47.93;100192.03;20498329;28;20102;-75
2021/06/19 10:45:24;;;;;;;12.60;6.45;;;;;;;29.66;47.15;100182.84;20509950;28;20106;-76
2021/06/19 10:55:29;;;;;;;11.77;5.60;;;;;;;29.63;45.51;100164.25;20514838;29;20573;-75
2021/06/19 11:05:43;;;;;;;12.77;5.13;;;;;;;30.31;45.77;100118.63;20512028;28;20059;-76
2021/06/19 11:15:45;;;;;;;12.27;6.72;;;;;;;30.52;45.82;100109.28;20471131;29;20534;-76
2021/06/19 11:25:52;;;;;;;14.73;5.80;;;;;;;30.81;45.54;100119.81;20432810;29;20559;-73
2021/06/19 11:35:58;;;;;;;12.48;5.28;;;;;;;30.99;44.97;100108.88;20430874;29;20115;-74
2021/06/19 11:46:01;;;;;;;10.80;5.18;;;;;;;31.14;44.69;100085.59;20430613;29;20052;-74
2021/06/19 11:56:27;;;;;;;14.43;6.28;;;;;;;31.07;42.90;100076.47;20429450;29;20079;-75
2021/06/19 12:06:54;;;;;;;19.27;5.97;;;;;;;31.11;43.33;100078.69;20428982;29;20047;-74
2021/06/19 12:17:01;;;;;;;12.43;5.75;;;;;;;31.66;41.73;100078.13;20478404;29;20489;-75
2021/06/19 12:27:17;;;;;;;13.13;5.43;;;;;;;31.72;42.32;100059.50;20506336;29;20051;-75
2021/06/19 12:37:29;;;;;;;13.70;6.32;;;;;;;31.75;41.72;100049.19;20505908;29;20051;-75
2021/06/19 12:47:35;;;;;;;16.67;6.63;;;;;;;32.12;41.13;100042.44;20506814;29;20289;-76
2021/06/19 12:57:39;;;;;;;16.75;5.65;;;;;;;32.46;36.95;100042.22;20504207;29;20122;-76
2021/06/19 13:07:41;;;;;;;18.92;5.90;;;;;;;32.13;37.34;100036.84;20503789;28;20476;-76
2021/06/19 13:17:49;;;;;;;13.77;6.10;;;;;;;32.00;37.21;100016.72;20433843;29;20055;-75
2021/06/19 13:27:54;;;;;;;23.13;7.00;;;;;;;32.21;39.36;100003.47;20426143;29;20496;-75
2021/06/19 13:37:58;;;;;;;12.80;5.60;;;;;;;32.30;41.45;100001.59;20423081;29;20058;-75
2021/06/19 13:48:01;;;;;;;14.02;6.18;;;;;;;32.43;42.25;99981.06;20422172;29;20076;-74
2021/06/19 13:58:03;;;;;;;9.98;5.85;;;;;;;32.24;41.79;99975.19;20420316;29;20111;-75
2021/06/19 14:08:05;;;;;;;15.37;7.67;;;;;;;32.23;43.36;99966.22;20419416;29;20043;-74
2021/06/19 14:18:07;;;;;;;16.57;6.27;;;;;;;31.83;41.68;99946.34;20478643;28;20047;-75
2021/06/19 14:28:09;;;;;;;14.87;5.80;;;;;;;32.10;37.09;99923.44;20499989;29;20054;-76
2021/06/19 14:38:13;;;;;;;15.00;5.87;;;;;;;31.96;40.73;99909.75;20498697;29;20043;-77
2021/06/19 14:48:16;;;;;;;19.38;5.80;;;;;;;31.89;37.98;99915.03;20498607;29;20047;-75
2021/06/19 14:58:18;;;;;;;17.00;6.18;;;;;;;32.16;38.72;99908.34;20496987;29;20122;-75
2021/06/19 15:08:20;;;;;;;18.97;5.90;;;;;;;31.65;39.32;99891.53;20498000;29;20196;-75
2021/06/19 15:18:22;;;;;;;16.03;5.63;;;;;;;31.62;39.97;99881.03;20436149;29;20051;-75
2021/06/19 15:28:24;;;;;;;13.77;5.70;;;;;;;32.49;39.36;99854.03;20422530;29;20051;-74
2021/06/19 15:38:29;;;;;;;12.27;5.63;;;;;;;31.90;38.07;99857.97;20429080;29;20044;-74
2021/06/19 15:48:31;;;;;;;15.77;5.90;;;;;;;31.39;39.23;99864.72;20429594;29;20460;-74
2021/06/19 15:58:33;;;;;;;20.77;6.80;;;;;;;31.09;42.08;99828.34;20429071;29;20052;-74
2021/06/19 16:08:34;;;;;;;16.13;6.43;;;;;;;30.74;42.34;99797.09;20427979;29;20081;-74
2021/06/19 16:18:36;;;;;;;16.53;6.50;;;;;;;30.53;42.81;99767.88;20491487;29;20050;-73
2021/06/19 16:28:38;;;;;;;16.17;6.38;;;;;;;30.31;44.45;99751.28;20507160;29;20051;-73
2021/06/19 16:38:40;;;;;;;16.77;6.38;;;;;;;30.88;44.06;99751.31;20505245;28;20052;-74
2021/06/19 16:48:42;;;;;;;17.02;6.57;;;;;;;31.07;42.95;99722.22;20506333;29;20051;-75
2021/06/19 16:58:43;;;;;;;13.07;6.00;;;;;;;31.29;43.46;99713.41;20505225;29;20055;-74
2021/06/19 17:08:45;;;;;;;17.02;6.82;;;;;;;31.31;42.91;99697.84;20503092;29;20101;-74
2021/06/19 17:18:47;;;;;;;19.90;5.97;;;;;;;31.25;42.25;99674.16;20439081;29;20051;-75
2021/06/19 17:28:48;;;;;;;13.82;6.50;;;;;;;31.07;43.12;99684.38;20423629;29;20055;-74
2021/06/19 17:38:51;;;;;;;16.90;6.50;;;;;;;30.76;43.58;99679.72;20422232;29;20106;-74
2021/06/19 17:48:53;;;;;;;;;;;;;;;30.61;45.33;99662.47;20428179;29;20110;-74
2021/06/19 17:58:54;;;;;;;13.98;6.82;;;;;;;30.18;46.39;99650.16;20433675;29;20366;-74
2021/06/19 18:08:56;;;;;;;17.92;7.72;;;;;;;30.00;47.04;99661.94;20402855;29;20083;-74
2021/06/19 18:18:58;;;;;;;18.50;7.68;;;;;;;29.73;47.68;99667.63;20484441;29;20051;-74
2021/06/19 18:29:00;;;;;;;15.63;6.67;;;;;;;29.65;47.59;99658.50;20498455;29;20118;-73
2021/06/19 18:39:02;;;;;;;18.42;7.97;;;;;;;29.51;48.66;99653.69;20507412;28;20047;-74
2021/06/19 18:49:04;;;;;;;17.33;7.35;;;;;;;29.19;49.30;99645.53;20580669;28;20050;-74
2021/06/19 18:59:05;;;;;;;17.13;8.30;;;;;;;28.95;50.49;99646.25;20581035;28;20047;-75
2021/06/19 19:09:07;;;;;;;15.48;7.13;;;;;;;28.70;50.81;99646.09;20575507;28;20051;-75
2021/06/19 19:19:09;;;;;;;18.50;7.35;;;;;;;28.56;51.00;99665.50;20558366;28;20047;-74
2021/06/19 19:29:11;;;;;;;15.32;7.00;;;;;;;28.22;52.39;99663.53;20514097;29;20098;-74
2021/06/19 19:39:13;;;;;;;14.38;7.00;;;;;;;28.06;53.24;99668.75;20511795;29;20040;-74
2021/06/19 19:49:15;;;;;;;17.85;7.70;;;;;;;27.97;53.18;99692.06;20511767;29;20047;-75
2021/06/19 19:59:18;;;;;;;17.73;10.73;;;;;;;27.59;56.97;99693.13;20511161;29;20054;-74
2021/06/19 20:09:20;;;;;;;16.60;7.43;;;;;;;27.11;59.55;99721.06;20509937;29;20052;-75
2021/06/19 20:19:22;;;;;;;13.77;8.63;;;;;;;27.18;58.26;99708.75;20493538;29;20110;-74
2021/06/19 20:29:24;;;;;;;18.08;13.45;;;;;;;27.03;58.79;99675.28;20510129;29;20051;-74
2021/06/19 20:39:26;;;;;;;19.45;9.77;;;;;;;27.18;57.43;99663.06;20508018;29;20521;-75
2021/06/19 20:49:31;;;;;;;16.42;7.55;;;;;;;27.10;56.79;99644.97;20507068;28;20367;-75
2021/06/19 20:59:32;;;;;;;14.68;7.22;;;;;;;27.02;56.42;99649.38;20507445;29;20111;-74
2021/06/19 21:09:34;;;;;;;16.25;7.45;;;;;;;27.07;56.49;99652.50;20503756;29;20552;-75
2021/06/19 21:19:36;;;;;;;12.10;7.28;;;;;;;26.92;57.57;99662.00;20504938;29;20387;-77
2021/06/19 21:29:38;;;;;;;15.57;7.85;;;;;;;26.77;58.20;99659.78;20502469;28;20051;-77
2021/06/19 21:39:41;;;;;;;15.07;7.60;;;;;;;26.70;59.12;99672.13;20500775;29;20055;-75
2021/06/19 21:49:44;;;;;;;11.65;8.10;;;;;;;26.58;58.45;99655.31;20482552;28;20047;-76
2021/06/19 21:59:48;;;;;;;15.40;8.60;;;;;;;26.46;58.56;99628.78;20501754;29;20047;-77
2021/06/19 22:09:49;;;;;;;16.35;8.60;;;;;;;26.44;58.45;99620.00;20513220;28;20050;-76
2021/06/19 22:19:51;;;;;;;18.50;7.85;;;;;;;26.39;57.93;99603.47;20506103;29;20055;-75
2021/06/19 22:29:53;;;;;;;13.88;7.60;;;;;;;26.26;59.78;99585.84;20508861;29;20493;-75
2021/06/19 22:39:55;;;;;;;14.63;8.00;;;;;;;26.38;58.17;99599.09;20496393;28;20039;-76
2021/06/19 22:49:57;;;;;;;13.75;7.75;;;;;;;26.31;58.56;99598.84;20498203;28;20512;-76
2021/06/19 22:59:59;;;;;;;12.57;8.00;;;;;;;26.23;59.77;99596.84;20497428;29;20051;-77
2021/06/19 23:10:01;;;;;;;15.20;8.77;;;;;;;26.27;58.79;99582.16;20496204;28;20056;-76
2021/06/19 23:20:08;;;;;;;13.93;8.63;;;;;;;26.34;58.52;99571.69;20621028;23;20042;-73
2021/06/19 23:30:12;;;;;;;17.73;8.55;;;;;;;26.47;57.75;99558.00;20734824;28;20100;-74
2021/06/19 23:40:14;;;;;;;16.85;8.90;;;;;;;26.39;58.67;99577.47;20654815;28;20050;-73
2021/06/19 23:50:16;;;;;;;14.85;9.18;;;;;;;26.34;60.11;99556.44;20660169;28;20106;-74
